FDX670 BIIS-BIKF
Flight info
| Callsign | FDX670 |
|---|---|
| Flight time | 0h 26m |
| Altitude | 24000 |
| Route | ISAC1A ISACI MYRAR ELVUM |
| Aircraft | B738/M-VGDW/C |
Departure
| Time | 2026-05-04 21:21 |
|---|---|
| Airport | Ísafjörður Airport (BIIS) |
Arrival
| Time | 2026-05-04 21:47 |
|---|---|
| Airport | Keflavik International Airport (BIKF) |
| Time | Latitude | Longitude | Altitude | Speed | Heading |
|---|---|---|---|---|---|
| 2026-05-04 21:15 | 66.05605 | -23.14283 | 154 ft | 0 kts | 238° |
| 2026-05-04 21:18 | 66.05604 | -23.14285 | 154 ft | 0 kts | 237° |
| 2026-05-04 21:18 | 66.05602 | -23.14297 | 155 ft | 3 kts | 250° |
| 2026-05-04 21:18 | 66.05605 | -23.14459 | 149 ft | 14 kts | 257° |
| 2026-05-04 21:19 | 66.05559 | -23.14679 | 152 ft | 14 kts | 223° |
| 2026-05-04 21:19 | 66.05521 | -23.14806 | 152 ft | 1 kts | 304° |
| 2026-05-04 21:19 | 66.05537 | -23.14782 | 154 ft | 3 kts | 42° |
| 2026-05-04 21:19 | 66.05541 | -23.14761 | 152 ft | 0 kts | 60° |
| 2026-05-04 21:20 | 66.05580 | -23.14606 | 151 ft | 41 kts | 61° |
| 2026-05-04 21:21 | 66.05833 | -23.13447 | 152 ft | 112 kts | 57° |
| 2026-05-04 21:21 | 66.06322 | -23.11437 | 302 ft | 154 kts | 53° |
| 2026-05-04 21:21 | 66.07198 | -23.09680 | 858 ft | 168 kts | 26° |
| 2026-05-04 21:21 | 66.08279 | -23.08707 | 1981 ft | 169 kts | 19° |
| 2026-05-04 21:22 | 66.09410 | -23.07631 | 2909 ft | 180 kts | 24° |
| 2026-05-04 21:22 | 66.10604 | -23.06371 | 3737 ft | 196 kts | 22° |
| 2026-05-04 21:22 | 66.11893 | -23.04938 | 4511 ft | 210 kts | 34° |
| 2026-05-04 21:22 | 66.12853 | -23.02336 | 5739 ft | 203 kts | 62° |
| 2026-05-04 21:23 | 66.13264 | -22.98871 | 6631 ft | 224 kts | 84° |
| 2026-05-04 21:23 | 66.13108 | -22.94970 | 7064 ft | 230 kts | 103° |
| 2026-05-04 21:23 | 66.12495 | -22.91206 | 7701 ft | 246 kts | 117° |
| 2026-05-04 21:23 | 66.11437 | -22.87853 | 8848 ft | 249 kts | 134° |
| 2026-05-04 21:24 | 66.10052 | -22.85039 | 9636 ft | 269 kts | 141° |
| 2026-05-04 21:24 | 66.08539 | -22.82139 | 10429 ft | 282 kts | 140° |
| 2026-05-04 21:24 | 66.06953 | -22.79282 | 11448 ft | 281 kts | 148° |
| 2026-05-04 21:24 | 66.05241 | -22.76964 | 12503 ft | 284 kts | 155° |
| 2026-05-04 21:25 | 66.03337 | -22.75338 | 13170 ft | 299 kts | 166° |
| 2026-05-04 21:25 | 66.01226 | -22.74620 | 13782 ft | 314 kts | 177° |
| 2026-05-04 21:25 | 65.98983 | -22.74536 | 14341 ft | 330 kts | 181° |
| 2026-05-04 21:25 | 65.96649 | -22.74481 | 15026 ft | 339 kts | 180° |
| 2026-05-04 21:26 | 65.94263 | -22.74143 | 15794 ft | 348 kts | 178° |
| 2026-05-04 21:26 | 65.91825 | -22.73566 | 16531 ft | 356 kts | 178° |
| 2026-05-04 21:26 | 65.89331 | -22.72925 | 17247 ft | 364 kts | 179° |
| 2026-05-04 21:26 | 65.86781 | -22.72344 | 17963 ft | 372 kts | 181° |
| 2026-05-04 21:27 | 65.84176 | -22.71836 | 18677 ft | 379 kts | 182° |
| 2026-05-04 21:27 | 65.81520 | -22.70846 | 19302 ft | 391 kts | 175° |
| 2026-05-04 21:27 | 65.78827 | -22.69509 | 19960 ft | 398 kts | 175° |
| 2026-05-04 21:27 | 65.76088 | -22.68065 | 20587 ft | 406 kts | 175° |
| 2026-05-04 21:28 | 65.73313 | -22.66566 | 21238 ft | 412 kts | 175° |
| 2026-05-04 21:28 | 65.70493 | -22.65060 | 21864 ft | 418 kts | 176° |
| 2026-05-04 21:28 | 65.67632 | -22.63570 | 22489 ft | 423 kts | 177° |
| 2026-05-04 21:28 | 65.64725 | -22.62080 | 23139 ft | 429 kts | 177° |
| 2026-05-04 21:29 | 65.61784 | -22.60573 | 23748 ft | 435 kts | 178° |
| 2026-05-04 21:29 | 65.58805 | -22.59036 | 24281 ft | 441 kts | 178° |
| 2026-05-04 21:29 | 65.55760 | -22.57466 | 24382 ft | 452 kts | 177° |
| 2026-05-04 21:29 | 65.52652 | -22.55866 | 24372 ft | 462 kts | 177° |
| 2026-05-04 21:30 | 65.49479 | -22.54234 | 24366 ft | 471 kts | 177° |
| 2026-05-04 21:30 | 65.46249 | -22.52576 | 24358 ft | 478 kts | 176° |
| 2026-05-04 21:30 | 65.42970 | -22.50897 | 24351 ft | 485 kts | 176° |
| 2026-05-04 21:30 | 65.39657 | -22.49204 | 24348 ft | 488 kts | 176° |
| 2026-05-04 21:31 | 65.33077 | -22.45844 | 24346 ft | 485 kts | 176° |
| 2026-05-04 21:31 | 65.29775 | -22.44178 | 24344 ft | 485 kts | 176° |
| 2026-05-04 21:31 | 65.26475 | -22.42522 | 24342 ft | 484 kts | 176° |
| 2026-05-04 21:32 | 65.23176 | -22.40868 | 24363 ft | 484 kts | 176° |
| 2026-05-04 21:32 | 65.19871 | -22.39210 | 24355 ft | 485 kts | 176° |
| 2026-05-04 21:32 | 65.16582 | -22.37561 | 24353 ft | 484 kts | 176° |
| 2026-05-04 21:32 | 65.13287 | -22.35915 | 24351 ft | 484 kts | 176° |
| 2026-05-04 21:33 | 65.09981 | -22.34273 | 24344 ft | 488 kts | 176° |
| 2026-05-04 21:33 | 65.06644 | -22.32626 | 24341 ft | 492 kts | 176° |
| 2026-05-04 21:33 | 65.03281 | -22.30965 | 24347 ft | 495 kts | 176° |
| 2026-05-04 21:33 | 64.99897 | -22.29288 | 24343 ft | 495 kts | 176° |
| 2026-05-04 21:34 | 64.96527 | -22.27615 | 24339 ft | 495 kts | 176° |
| 2026-05-04 21:34 | 64.93153 | -22.25952 | 24340 ft | 494 kts | 176° |
| 2026-05-04 21:34 | 64.89786 | -22.24304 | 24340 ft | 494 kts | 176° |
| 2026-05-04 21:34 | 64.86415 | -22.22663 | 23920 ft | 495 kts | 176° |
| 2026-05-04 21:35 | 64.83047 | -22.21024 | 23099 ft | 492 kts | 176° |
| 2026-05-04 21:35 | 64.79711 | -22.19394 | 22406 ft | 487 kts | 176° |
| 2026-05-04 21:35 | 64.76409 | -22.17784 | 21745 ft | 481 kts | 175° |
| 2026-05-04 21:35 | 64.73148 | -22.16258 | 21070 ft | 473 kts | 179° |
| 2026-05-04 21:36 | 64.69929 | -22.15757 | 20419 ft | 456 kts | 189° |
| 2026-05-04 21:36 | 64.66836 | -22.16578 | 19790 ft | 439 kts | 200° |
| 2026-05-04 21:36 | 64.64863 | -22.17530 | 19366 ft | 435 kts | 201° |
| 2026-05-04 21:36 | 64.61927 | -22.19052 | 18732 ft | 430 kts | 201° |
| 2026-05-04 21:37 | 64.59032 | -22.20631 | 18020 ft | 425 kts | 201° |
| 2026-05-04 21:37 | 64.56166 | -22.22190 | 17347 ft | 421 kts | 201° |
| 2026-05-04 21:37 | 64.53322 | -22.23685 | 16679 ft | 417 kts | 200° |
| 2026-05-04 21:37 | 64.49596 | -22.25589 | 15813 ft | 411 kts | 199° |
| 2026-05-04 21:38 | 64.46813 | -22.27010 | 15171 ft | 407 kts | 199° |
| 2026-05-04 21:38 | 64.44942 | -22.27974 | 14738 ft | 405 kts | 199° |
| 2026-05-04 21:38 | 64.42245 | -22.29374 | 14107 ft | 401 kts | 199° |
| 2026-05-04 21:38 | 64.39537 | -22.30781 | 13401 ft | 397 kts | 198° |
| 2026-05-04 21:39 | 64.36857 | -22.32166 | 12711 ft | 392 kts | 198° |
| 2026-05-04 21:39 | 64.34205 | -22.33525 | 12035 ft | 388 kts | 197° |
| 2026-05-04 21:39 | 64.31584 | -22.34863 | 11315 ft | 380 kts | 197° |
| 2026-05-04 21:39 | 64.29047 | -22.36151 | 10736 ft | 364 kts | 196° |
| 2026-05-04 21:40 | 64.26633 | -22.37376 | 10260 ft | 347 kts | 196° |
| 2026-05-04 21:40 | 64.24336 | -22.38544 | 9813 ft | 330 kts | 196° |
| 2026-05-04 21:40 | 64.22150 | -22.39656 | 9400 ft | 314 kts | 196° |
| 2026-05-04 21:40 | 64.20072 | -22.40713 | 9054 ft | 298 kts | 196° |
| 2026-05-04 21:41 | 64.18094 | -22.41718 | 8766 ft | 284 kts | 196° |
| 2026-05-04 21:41 | 64.16160 | -22.42434 | 8307 ft | 281 kts | 187° |
| 2026-05-04 21:41 | 64.14208 | -22.42419 | 7814 ft | 279 kts | 180° |
| 2026-05-04 21:41 | 64.12278 | -22.42254 | 7318 ft | 275 kts | 180° |
| 2026-05-04 21:42 | 64.10384 | -22.42429 | 6822 ft | 270 kts | 192° |
| 2026-05-04 21:42 | 64.08584 | -22.43509 | 6326 ft | 266 kts | 200° |
| 2026-05-04 21:42 | 64.06860 | -22.44842 | 5985 ft | 252 kts | 201° |
| 2026-05-04 21:42 | 64.05263 | -22.46098 | 5577 ft | 232 kts | 201° |
| 2026-05-04 21:43 | 64.03809 | -22.47240 | 4988 ft | 216 kts | 201° |
| 2026-05-04 21:43 | 64.02423 | -22.48338 | 4467 ft | 201 kts | 201° |
| 2026-05-04 21:43 | 64.01155 | -22.49359 | 3888 ft | 193 kts | 201° |
| 2026-05-04 21:43 | 63.99901 | -22.50244 | 3285 ft | 187 kts | 193° |
| 2026-05-04 21:44 | 63.98626 | -22.50696 | 2666 ft | 184 kts | 186° |
| 2026-05-04 21:44 | 63.97402 | -22.50997 | 2432 ft | 172 kts | 186° |
| 2026-05-04 21:44 | 63.96270 | -22.51233 | 2278 ft | 161 kts | 185° |
| 2026-05-04 21:44 | 63.95168 | -22.51379 | 1977 ft | 156 kts | 182° |
| 2026-05-04 21:45 | 63.94098 | -22.51592 | 1703 ft | 151 kts | 194° |
| 2026-05-04 21:45 | 63.93196 | -22.52645 | 1521 ft | 151 kts | 220° |
| 2026-05-04 21:45 | 63.92570 | -22.54531 | 1331 ft | 146 kts | 252° |
| 2026-05-04 21:45 | 63.92545 | -22.56735 | 1044 ft | 137 kts | 288° |
| 2026-05-04 21:46 | 63.92996 | -22.58550 | 823 ft | 131 kts | 318° |
| 2026-05-04 21:46 | 63.93737 | -22.59649 | 681 ft | 129 kts | 339° |
| 2026-05-04 21:46 | 63.94597 | -22.60243 | 513 ft | 127 kts | 350° |
| 2026-05-04 21:46 | 63.95464 | -22.60507 | 365 ft | 126 kts | 357° |
| 2026-05-04 21:47 | 63.96336 | -22.60535 | 198 ft | 127 kts | 2° |
| 2026-05-04 21:47 | 63.97164 | -22.60530 | 151 ft | 99 kts | 1° |
| 2026-05-04 21:47 | 63.97670 | -22.60532 | 158 ft | 48 kts | 0° |
| 2026-05-04 21:47 | 63.97979 | -22.60548 | 159 ft | 43 kts | 357° |
| 2026-05-04 21:48 | 63.98259 | -22.60543 | 163 ft | 37 kts | 1° |
| 2026-05-04 21:48 | 63.98520 | -22.60543 | 164 ft | 36 kts | 359° |
| 2026-05-04 21:48 | 63.98763 | -22.60542 | 164 ft | 34 kts | 0° |
| 2026-05-04 21:48 | 63.98986 | -22.60540 | 167 ft | 30 kts | 0° |
| 2026-05-04 21:49 | 63.99135 | -22.60566 | 170 ft | 17 kts | 333° |
| 2026-05-04 21:49 | 63.99171 | -22.60822 | 169 ft | 20 kts | 271° |
| 2026-05-04 21:49 | 63.99171 | -22.61146 | 168 ft | 21 kts | 270° |
| 2026-05-04 21:49 | 63.99171 | -22.61490 | 166 ft | 22 kts | 270° |
| 2026-05-04 21:50 | 63.99170 | -22.61875 | 162 ft | 25 kts | 270° |
| 2026-05-04 21:50 | 63.99173 | -22.62288 | 158 ft | 27 kts | 270° |
| 2026-05-04 21:50 | 63.99172 | -22.62646 | 154 ft | 21 kts | 269° |
| 2026-05-04 21:50 | 63.99170 | -22.63003 | 150 ft | 24 kts | 270° |
| 2026-05-04 21:51 | 63.99172 | -22.63348 | 146 ft | 16 kts | 276° |
| 2026-05-04 21:51 | 63.99242 | -22.63521 | 145 ft | 15 kts | 295° |
| 2026-05-04 21:51 | 63.99299 | -22.63625 | 145 ft | 8 kts | 358° |
| 2026-05-04 21:51 | 63.99317 | -22.63625 | 145 ft | 0 kts | 0° |
| 2026-05-04 22:09 | 63.99315 | -22.63624 | 145 ft | 3 kts | 5° |
| 2026-05-04 22:09 | 63.99296 | -22.63636 | 145 ft | 3 kts | 37° |
| 2026-05-04 22:09 | 63.99283 | -22.63668 | 144 ft | 3 kts | 69° |
| 2026-05-04 22:09 | 63.99280 | -22.63696 | 144 ft | 0 kts | 91° |
| 2026-05-04 22:12 | 63.99277 | -22.63652 | 144 ft | 7 kts | 105° |
| 2026-05-04 22:12 | 63.99243 | -22.63514 | 145 ft | 11 kts | 126° |
| 2026-05-04 22:12 | 63.99177 | -22.63376 | 146 ft | 14 kts | 112° |
| 2026-05-04 22:13 | 63.99173 | -22.63114 | 149 ft | 17 kts | 89° |
| 2026-05-04 22:13 | 63.99173 | -22.62860 | 151 ft | 15 kts | 91° |
| 2026-05-04 22:13 | 63.99135 | -22.62710 | 152 ft | 11 kts | 169° |
| 2026-05-04 22:13 | 63.99034 | -22.62774 | 150 ft | 19 kts | 197° |
| 2026-05-04 22:14 | 63.98902 | -22.62859 | 147 ft | 17 kts | 201° |
| 2026-05-04 22:14 | 63.98852 | -22.63079 | 144 ft | 23 kts | 270° |
| 2026-05-04 22:14 | 63.98854 | -22.63461 | 140 ft | 25 kts | 270° |
| 2026-05-04 22:14 | 63.98854 | -22.63870 | 136 ft | 27 kts | 270° |
| 2026-05-04 22:15 | 63.98852 | -22.64303 | 132 ft | 28 kts | 270° |
| 2026-05-04 22:15 | 63.98853 | -22.64756 | 127 ft | 29 kts | 270° |
| 2026-05-04 22:15 | 63.98853 | -22.65137 | 124 ft | 17 kts | 270° |
| 2026-05-04 22:15 | 63.98853 | -22.65375 | 121 ft | 14 kts | 265° |
| 2026-05-04 22:16 | 63.98772 | -22.65464 | 118 ft | 15 kts | 180° |
| 2026-05-04 22:16 | 63.98722 | -22.65464 | 118 ft | 6 kts | 181° |
| 2026-05-04 22:16 | 63.98692 | -22.65466 | 118 ft | 7 kts | 182° |
| 2026-05-04 22:16 | 63.98604 | -22.65464 | 118 ft | 11 kts | 179° |
| 2026-05-04 22:17 | 63.98519 | -22.65458 | 117 ft | 12 kts | 159° |
| 2026-05-04 22:17 | 63.98507 | -22.65377 | 118 ft | 1 kts | 91° |
| 2026-05-04 22:17 | 63.98504 | -22.65275 | 117 ft | 18 kts | 94° |
| 2026-05-04 22:17 | 63.98501 | -22.64397 | 129 ft | 93 kts | 90° |
| 2026-05-04 22:18 | 63.98499 | -22.63153 | 144 ft | 138 kts | 89° |
| 2026-05-04 22:18 | 63.98511 | -22.60825 | 852 ft | 148 kts | 87° |
| 2026-05-04 22:18 | 63.98475 | -22.58447 | 1897 ft | 159 kts | 86° |
| 2026-05-04 22:18 | 63.98441 | -22.55852 | 2856 ft | 162 kts | 86° |
| 2026-05-04 22:19 | 63.98540 | -22.53150 | 3546 ft | 185 kts | 72° |
| 2026-05-04 22:19 | 63.99279 | -22.50581 | 4176 ft | 202 kts | 34° |
| 2026-05-04 22:19 | 64.00532 | -22.49267 | 5271 ft | 207 kts | 15° |
| 2026-05-04 22:19 | 64.01975 | -22.48314 | 6135 ft | 223 kts | 13° |
| 2026-05-04 22:20 | 64.03527 | -22.47319 | 6995 ft | 240 kts | 13° |
| 2026-05-04 22:20 | 64.05189 | -22.46217 | 7800 ft | 256 kts | 13° |
| 2026-05-04 22:20 | 64.06923 | -22.45015 | 8797 ft | 263 kts | 13° |
| 2026-05-04 22:20 | 64.08681 | -22.43730 | 9926 ft | 266 kts | 13° |
| 2026-05-04 22:21 | 64.10455 | -22.42363 | 10868 ft | 275 kts | 13° |
| 2026-05-04 22:21 | 64.12318 | -22.40879 | 11459 ft | 292 kts | 12° |
| 2026-05-04 22:21 | 64.14324 | -22.39702 | 12089 ft | 303 kts | 5° |
| 2026-05-04 22:21 | 64.16427 | -22.38849 | 12971 ft | 309 kts | 3° |
| 2026-05-04 22:22 | 64.18564 | -22.37961 | 13946 ft | 314 kts | 3° |
| 2026-05-04 22:22 | 64.20730 | -22.36993 | 14805 ft | 319 kts | 3° |
| 2026-05-04 22:22 | 64.22919 | -22.35965 | 15678 ft | 323 kts | 3° |
| 2026-05-04 22:22 | 64.25127 | -22.34886 | 16550 ft | 327 kts | 3° |
| 2026-05-04 22:23 | 64.27366 | -22.33751 | 17417 ft | 332 kts | 3° |
| 2026-05-04 22:23 | 64.29637 | -22.32557 | 18288 ft | 336 kts | 3° |
| 2026-05-04 22:23 | 64.31929 | -22.31314 | 19069 ft | 341 kts | 3° |
| 2026-05-04 22:23 | 64.34248 | -22.30033 | 19811 ft | 345 kts | 3° |
| 2026-05-04 22:24 | 64.36591 | -22.28717 | 20559 ft | 348 kts | 3° |
| 2026-05-04 22:24 | 64.38957 | -22.27368 | 21299 ft | 352 kts | 3° |
| 2026-05-04 22:24 | 64.41348 | -22.25986 | 22023 ft | 356 kts | 3° |
| 2026-05-04 22:24 | 64.43763 | -22.24569 | 22732 ft | 360 kts | 3° |
| 2026-05-04 22:25 | 64.46212 | -22.23113 | 23303 ft | 367 kts | 3° |
| 2026-05-04 22:25 | 64.48694 | -22.21629 | 23326 ft | 366 kts | 3° |
| 2026-05-04 22:25 | 64.51145 | -22.20136 | 23334 ft | 364 kts | 3° |
| 2026-05-04 22:25 | 64.53598 | -22.18635 | 23347 ft | 364 kts | 3° |
| 2026-05-04 22:26 | 64.56045 | -22.17124 | 23349 ft | 364 kts | 3° |
| 2026-05-04 22:26 | 64.58490 | -22.15603 | 23350 ft | 364 kts | 3° |
| 2026-05-04 22:26 | 64.60934 | -22.14124 | 23351 ft | 360 kts | 0° |
| 2026-05-04 22:26 | 64.63349 | -22.12987 | 23349 ft | 357 kts | 359° |
| 2026-05-04 22:27 | 64.65788 | -22.11993 | 23348 ft | 350 kts | 353° |
| 2026-05-04 22:27 | 64.68193 | -22.11724 | 23350 ft | 342 kts | 348° |
| 2026-05-04 22:27 | 64.70554 | -22.12018 | 23334 ft | 331 kts | 339° |
| 2026-05-04 22:27 | 64.72698 | -22.13600 | 23360 ft | 321 kts | 332° |
| 2026-05-04 22:28 | 64.74812 | -22.15372 | 23357 ft | 323 kts | 332° |
| 2026-05-04 22:28 | 64.77061 | -22.16425 | 23351 ft | 335 kts | 342° |
| 2026-05-04 22:28 | 64.79402 | -22.17013 | 23383 ft | 339 kts | 344° |
| 2026-05-04 22:28 | 64.81750 | -22.17447 | 23293 ft | 339 kts | 345° |
| 2026-05-04 22:29 | 64.84093 | -22.17866 | 23303 ft | 336 kts | 344° |
| 2026-05-04 22:29 | 64.86427 | -22.18354 | 23363 ft | 338 kts | 343° |
| 2026-05-04 22:29 | 64.88760 | -22.18898 | 23367 ft | 336 kts | 343° |
| 2026-05-04 22:29 | 64.91087 | -22.19450 | 23358 ft | 336 kts | 343° |
| 2026-05-04 22:30 | 64.93416 | -22.19987 | 23363 ft | 336 kts | 343° |
| 2026-05-04 22:30 | 64.95750 | -22.20509 | 23376 ft | 336 kts | 343° |
| 2026-05-04 22:30 | 64.98080 | -22.21025 | 23367 ft | 336 kts | 343° |
| 2026-05-04 22:30 | 65.00407 | -22.21545 | 23365 ft | 336 kts | 343° |
| 2026-05-04 22:31 | 65.02733 | -22.22071 | 23364 ft | 336 kts | 343° |
| 2026-05-04 22:31 | 65.05115 | -22.22636 | 22834 ft | 357 kts | 344° |
| 2026-05-04 22:31 | 65.07615 | -22.23234 | 22225 ft | 362 kts | 345° |
| 2026-05-04 22:31 | 65.10123 | -22.23792 | 21659 ft | 366 kts | 345° |
| 2026-05-04 22:32 | 65.12645 | -22.24328 | 21102 ft | 361 kts | 345° |
| 2026-05-04 22:32 | 65.15134 | -22.24869 | 20569 ft | 357 kts | 345° |
| 2026-05-04 22:32 | 65.17606 | -22.25434 | 20027 ft | 353 kts | 345° |
| 2026-05-04 22:32 | 65.20038 | -22.26005 | 19488 ft | 351 kts | 345° |
| 2026-05-04 22:33 | 65.22462 | -22.26574 | 18963 ft | 349 kts | 346° |
| 2026-05-04 22:33 | 65.24878 | -22.27134 | 18417 ft | 347 kts | 346° |
| 2026-05-04 22:33 | 65.27274 | -22.27685 | 17861 ft | 346 kts | 346° |
| 2026-05-04 22:33 | 65.29666 | -22.28234 | 17318 ft | 345 kts | 347° |
| 2026-05-04 22:34 | 65.32061 | -22.28788 | 16792 ft | 345 kts | 347° |
| 2026-05-04 22:34 | 65.34455 | -22.29344 | 16265 ft | 344 kts | 348° |
| 2026-05-04 22:34 | 65.36839 | -22.29899 | 15733 ft | 344 kts | 348° |
| 2026-05-04 22:34 | 65.39222 | -22.30453 | 15210 ft | 344 kts | 349° |
| 2026-05-04 22:35 | 65.41602 | -22.31007 | 14687 ft | 343 kts | 349° |
| 2026-05-04 22:35 | 65.43980 | -22.31562 | 14161 ft | 343 kts | 350° |
| 2026-05-04 22:35 | 65.46358 | -22.32118 | 13592 ft | 343 kts | 350° |
| 2026-05-04 22:35 | 65.48734 | -22.32673 | 13074 ft | 343 kts | 351° |
| 2026-05-04 22:36 | 65.51113 | -22.33231 | 12576 ft | 343 kts | 351° |
| 2026-05-04 22:36 | 65.53368 | -22.33750 | 12467 ft | 315 kts | 351° |
| 2026-05-04 22:36 | 65.55467 | -22.34231 | 12344 ft | 291 kts | 351° |
| 2026-05-04 22:36 | 65.57408 | -22.34684 | 12231 ft | 270 kts | 351° |
| 2026-05-04 22:37 | 65.59215 | -22.35115 | 12145 ft | 252 kts | 351° |
| 2026-05-04 22:37 | 65.60933 | -22.35527 | 11997 ft | 244 kts | 351° |
| 2026-05-04 22:37 | 65.62584 | -22.36050 | 11914 ft | 237 kts | 345° |
| 2026-05-04 22:37 | 65.64164 | -22.37184 | 11851 ft | 237 kts | 336° |
| 2026-05-04 22:38 | 65.65728 | -22.38638 | 11626 ft | 243 kts | 336° |
| 2026-05-04 22:38 | 65.67302 | -22.40103 | 11484 ft | 241 kts | 336° |
| 2026-05-04 22:38 | 65.68855 | -22.41544 | 11374 ft | 237 kts | 336° |
| 2026-05-04 22:38 | 65.70414 | -22.42990 | 11282 ft | 236 kts | 336° |
| 2026-05-04 22:39 | 65.71946 | -22.44412 | 11197 ft | 235 kts | 337° |
| 2026-05-04 22:39 | 65.73472 | -22.45833 | 11090 ft | 235 kts | 337° |
| 2026-05-04 22:39 | 65.74997 | -22.47254 | 11023 ft | 235 kts | 337° |
| 2026-05-04 22:39 | 65.76528 | -22.48682 | 10937 ft | 234 kts | 337° |
| 2026-05-04 22:40 | 65.77996 | -22.50047 | 10850 ft | 217 kts | 337° |
| 2026-05-04 22:40 | 65.79362 | -22.51321 | 10778 ft | 204 kts | 337° |
| 2026-05-04 22:40 | 65.80663 | -22.52540 | 10690 ft | 196 kts | 337° |
| 2026-05-04 22:40 | 65.81919 | -22.53719 | 10597 ft | 191 kts | 337° |
| 2026-05-04 22:41 | 65.83151 | -22.54878 | 10530 ft | 189 kts | 337° |
| 2026-05-04 22:41 | 65.84399 | -22.56053 | 10256 ft | 197 kts | 337° |
| 2026-05-04 22:41 | 65.85677 | -22.57256 | 9864 ft | 197 kts | 337° |
| 2026-05-04 22:41 | 65.86918 | -22.58425 | 9592 ft | 190 kts | 337° |
| 2026-05-04 22:42 | 65.88127 | -22.59563 | 9435 ft | 184 kts | 337° |
| 2026-05-04 22:42 | 65.89314 | -22.60683 | 9311 ft | 182 kts | 337° |
| 2026-05-04 22:42 | 65.90508 | -22.61809 | 9219 ft | 184 kts | 337° |
| 2026-05-04 22:42 | 65.91688 | -22.62923 | 9171 ft | 179 kts | 338° |
| 2026-05-04 22:43 | 65.92862 | -22.64033 | 8721 ft | 183 kts | 338° |
| 2026-05-04 22:43 | 65.94084 | -22.64967 | 8314 ft | 184 kts | 346° |
| 2026-05-04 22:43 | 65.95352 | -22.65423 | 7980 ft | 184 kts | 354° |
| 2026-05-04 22:43 | 65.96616 | -22.65400 | 7678 ft | 179 kts | 3° |
| 2026-05-04 22:44 | 65.97821 | -22.64982 | 7410 ft | 173 kts | 7° |
| 2026-05-04 22:44 | 65.99045 | -22.64499 | 6777 ft | 181 kts | 8° |
| 2026-05-04 22:44 | 66.00292 | -22.64259 | 6151 ft | 179 kts | 359° |
| 2026-05-04 22:44 | 66.01519 | -22.64676 | 5570 ft | 178 kts | 348° |
| 2026-05-04 22:45 | 66.02681 | -22.65721 | 4923 ft | 179 kts | 337° |
| 2026-05-04 22:45 | 66.04612 | -22.69494 | 3655 ft | 180 kts | 312° |
| 2026-05-04 22:45 | 66.05281 | -22.72015 | 3179 ft | 173 kts | 300° |
| 2026-05-04 22:46 | 66.05837 | -22.74542 | 2830 ft | 164 kts | 301° |
| 2026-05-04 22:46 | 66.06374 | -22.76951 | 2665 ft | 159 kts | 301° |
| 2026-05-04 22:46 | 66.06904 | -22.79318 | 2505 ft | 158 kts | 301° |
| 2026-05-04 22:46 | 66.07433 | -22.81679 | 2287 ft | 156 kts | 301° |
| 2026-05-04 22:47 | 66.07948 | -22.83990 | 2144 ft | 154 kts | 301° |
| 2026-05-04 22:47 | 66.08464 | -22.86305 | 2028 ft | 155 kts | 301° |
| 2026-05-04 22:47 | 66.08983 | -22.88629 | 1821 ft | 153 kts | 301° |
| 2026-05-04 22:47 | 66.09479 | -22.90855 | 1585 ft | 144 kts | 300° |
| 2026-05-04 22:48 | 66.09949 | -22.92964 | 1366 ft | 139 kts | 300° |
| 2026-05-04 22:48 | 66.10410 | -22.95033 | 1338 ft | 138 kts | 301° |
| 2026-05-04 22:48 | 66.10871 | -22.97103 | 1345 ft | 138 kts | 300° |
| 2026-05-04 22:48 | 66.11317 | -22.99214 | 1276 ft | 140 kts | 294° |
| 2026-05-04 22:49 | 66.11210 | -23.01500 | 1312 ft | 142 kts | 243° |
| 2026-05-04 22:49 | 66.10604 | -23.03479 | 1161 ft | 139 kts | 227° |
| 2026-05-04 22:49 | 66.09915 | -23.05130 | 876 ft | 136 kts | 224° |
| 2026-05-04 22:49 | 66.09202 | -23.06555 | 741 ft | 132 kts | 217° |
| 2026-05-04 22:50 | 66.08416 | -23.07739 | 605 ft | 132 kts | 209° |
| 2026-05-04 22:50 | 66.07616 | -23.08832 | 513 ft | 131 kts | 210° |
| 2026-05-04 22:50 | 66.06874 | -23.10100 | 430 ft | 130 kts | 217° |
| 2026-05-04 22:50 | 66.06240 | -23.11716 | 355 ft | 132 kts | 231° |
| 2026-05-04 22:51 | 66.05827 | -23.13483 | 318 ft | 75 kts | 241° |
| 2026-05-04 22:51 | 66.05735 | -23.13898 | 320 ft | 18 kts | 240° |
| 2026-05-04 22:51 | 66.05672 | -23.14178 | 318 ft | 20 kts | 241° |
| 2026-05-04 22:51 | 66.05598 | -23.14325 | 320 ft | 10 kts | 172° |
| 2026-05-04 22:52 | 66.05571 | -23.14298 | 324 ft | 0 kts | 154° |